Time;durP1;ratioP1;P1;durP2;ratioP2;P2;SDS_P1;SDS_P2;PMS_P1;PMS_P2;Temp;Humidity;BMP_temperature;BMP_pressure;BME280_temperature;BME280_humidity;BME280_pressure;Samples;Min_cycle;Max_cycle;Signal;HPM_P1;HPM_P2
2022/05/06 00:01:23;;;;;;;0.80;0.50;;;12.20;99.90;;;;;;4992412;28;20181;-68
2022/05/06 00:03:48;;;;;;;0.80;0.50;;;12.20;99.90;;;;;;4990696;28;20215;-68
2022/05/06 00:06:14;;;;;;;0.80;0.50;;;12.20;99.90;;;;;;4992018;28;20173;-68
2022/05/06 00:08:39;;;;;;;0.80;0.50;;;12.20;99.90;;;;;;4994954;28;20278;-68
2022/05/06 00:11:05;;;;;;;0.80;0.50;;;12.10;99.90;;;;;;4995868;28;20624;-68
2022/05/06 00:13:31;;;;;;;0.80;0.50;;;12.10;99.90;;;;;;4995971;28;20173;-68
2022/05/06 00:15:56;;;;;;;0.80;0.50;;;12.10;99.90;;;;;;4995732;28;20173;-68
2022/05/06 00:18:22;;;;;;;0.80;0.50;;;12.00;99.90;;;;;;4995541;28;20470;-69
2022/05/06 00:20:48;;;;;;;0.80;0.50;;;12.00;99.90;;;;;;4995842;28;20619;-68
2022/05/06 00:23:13;;;;;;;0.83;0.60;;;12.00;99.90;;;;;;4995854;28;20165;-69
2022/05/06 00:25:39;;;;;;;0.80;0.50;;;11.90;99.90;;;;;;4995881;28;20176;-68
2022/05/06 00:28:04;;;;;;;0.83;0.50;;;11.90;99.90;;;;;;4995137;28;20200;-68
2022/05/06 00:30:30;;;;;;;0.80;0.50;;;11.90;99.90;;;;;;4995838;28;20573;-67
2022/05/06 00:32:55;;;;;;;0.80;0.50;;;11.80;99.90;;;;;;4995722;28;20169;-68
2022/05/06 00:35:21;;;;;;;0.80;0.50;;;11.80;99.90;;;;;;4995614;28;20180;-68
2022/05/06 00:37:47;;;;;;;0.80;0.50;;;11.70;99.90;;;;;;4995020;28;20548;-68
2022/05/06 00:40:13;;;;;;;0.80;0.50;;;11.70;99.90;;;;;;4995564;28;20415;-69
2022/05/06 00:42:39;;;;;;;0.80;0.60;;;11.60;99.90;;;;;;4995477;28;20164;-69
2022/05/06 00:45:05;;;;;;;1.10;0.60;;;11.60;99.90;;;;;;4995445;28;20474;-68
2022/05/06 00:47:33;;;;;;;0.80;0.50;;;11.60;99.90;;;;;;4994744;28;20188;-69
2022/05/06 00:50:00;;;;;;;0.80;0.50;;;11.50;99.90;;;;;;4995109;28;20427;-68
2022/05/06 00:52:26;;;;;;;0.80;0.50;;;11.50;99.90;;;;;;4995431;28;20411;-68
2022/05/06 00:54:52;;;;;;;0.80;0.50;;;11.50;99.90;;;;;;4995109;28;20435;-68
2022/05/06 00:57:17;;;;;;;0.80;0.50;;;11.50;99.90;;;;;;4994651;28;21012;-68
2022/05/06 01:02:27;;;;;;;0.80;0.50;;;11.50;99.90;;;;;;4994883;28;20196;-69
2022/05/06 01:04:53;;;;;;;0.80;0.50;;;11.50;99.90;;;;;;4995488;28;20404;-68
2022/05/06 01:07:21;;;;;;;0.80;0.60;;;11.60;99.90;;;;;;4994758;28;20240;-68
2022/05/06 01:09:49;;;;;;;0.80;0.50;;;11.60;99.90;;;;;;4993856;28;20172;-68
2022/05/06 01:12:15;;;;;;;1.07;0.80;;;11.70;99.90;;;;;;4994991;28;20400;-68
2022/05/06 01:14:40;;;;;;;0.80;0.50;;;11.70;99.90;;;;;;4993740;28;20764;-68
2022/05/06 01:17:09;;;;;;;0.80;0.50;;;11.70;99.90;;;;;;4994291;28;20454;-68
2022/05/06 01:19:35;;;;;;;0.80;0.50;;;11.80;99.90;;;;;;4993791;28;20161;-68
2022/05/06 01:22:00;;;;;;;0.80;0.50;;;11.80;99.90;;;;;;4993559;28;20499;-68
2022/05/06 01:24:26;;;;;;;0.80;0.50;;;11.90;99.90;;;;;;4993453;28;21075;-68
2022/05/06 01:26:53;;;;;;;0.80;0.60;;;11.90;99.90;;;;;;4994185;28;20177;-69
2022/05/06 01:29:22;;;;;;;0.90;0.60;;;11.80;99.90;;;;;;4994672;28;20268;-68
2022/05/06 01:31:51;;;;;;;0.80;0.50;;;11.80;99.90;;;;;;4994596;28;20420;-68
2022/05/06 01:34:17;;;;;;;0.80;0.50;;;11.80;99.90;;;;;;4993192;28;20776;-68
2022/05/06 01:36:46;;;;;;;0.80;0.50;;;11.70;99.90;;;;;;4994028;28;20452;-68
2022/05/06 01:39:15;;;;;;;0.80;0.50;;;11.70;99.90;;;;;;4994019;28;20995;-68
2022/05/06 01:41:45;;;;;;;0.80;0.50;;;11.60;99.90;;;;;;4994284;28;20410;-69
2022/05/06 01:44:14;;;;;;;0.80;0.50;;;11.60;99.90;;;;;;4994443;28;20392;-68
2022/05/06 01:46:40;;;;;;;0.80;0.50;;;11.40;99.90;;;;;;4993796;28;20948;-68
2022/05/06 01:49:06;;;;;;;0.80;0.50;;;11.40;99.90;;;;;;4994180;28;20424;-68
2022/05/06 01:51:33;;;;;;;0.80;0.50;;;11.30;99.90;;;;;;4994075;28;20420;-68
2022/05/06 01:53:59;;;;;;;0.80;0.50;;;11.30;99.90;;;;;;4993980;28;20424;-68
2022/05/06 01:56:25;;;;;;;0.80;0.50;;;11.20;99.90;;;;;;4993640;28;20396;-68
2022/05/06 01:58:51;;;;;;;0.80;0.50;;;11.20;99.90;;;;;;4993896;28;20200;-69
2022/05/06 02:01:17;;;;;;;0.80;0.50;;;11.10;99.90;;;;;;4994094;28;20176;-68
2022/05/06 02:06:27;;;;;;;0.80;0.50;;;11.00;99.90;;;;;;4993896;28;20180;-68
2022/05/06 02:08:52;;;;;;;0.80;0.50;;;10.90;99.90;;;;;;5001999;28;20428;-70
2022/05/06 02:11:18;;;;;;;0.80;0.60;;;10.90;99.90;;;;;;5013117;28;20654;-70
2022/05/06 02:13:45;;;;;;;0.80;0.50;;;10.90;99.90;;;;;;4994599;28;20542;-70
2022/05/06 02:16:11;;;;;;;0.80;0.50;;;10.80;99.90;;;;;;5010820;28;20454;-70
2022/05/06 02:18:37;;;;;;;0.80;0.50;;;10.70;99.90;;;;;;5012190;28;20467;-69
2022/05/06 02:21:02;;;;;;;0.80;0.50;;;10.70;99.90;;;;;;5010855;28;20424;-68
2022/05/06 02:23:28;;;;;;;0.80;0.50;;;10.70;99.90;;;;;;5011717;28;20161;-70
2022/05/06 02:25:54;;;;;;;0.80;0.50;;;10.60;99.90;;;;;;5011417;28;20179;-68
2022/05/06 02:28:20;;;;;;;0.80;0.50;;;10.60;99.90;;;;;;5010624;28;20486;-70
2022/05/06 02:33:31;;;;;;;0.80;0.50;;;10.50;99.90;;;;;;4993445;28;20786;-68
2022/05/06 02:35:58;;;;;;;0.80;0.50;;;10.40;99.90;;;;;;4993375;28;20419;-68
2022/05/06 02:38:25;;;;;;;0.80;0.50;;;10.40;99.90;;;;;;4992655;28;20475;-68
2022/05/06 02:40:51;;;;;;;0.80;0.50;;;10.30;99.90;;;;;;4993090;28;20475;-68
2022/05/06 02:43:17;;;;;;;0.80;0.50;;;10.30;99.90;;;;;;4992993;28;20817;-67
2022/05/06 02:45:44;;;;;;;0.80;0.50;;;10.30;99.90;;;;;;4993384;28;20438;-68
2022/05/06 02:48:09;;;;;;;0.80;0.50;;;10.30;99.90;;;;;;4992532;28;20444;-68
2022/05/06 02:50:35;;;;;;;0.80;0.50;;;10.20;99.90;;;;;;4993112;28;20434;-68
2022/05/06 02:53:01;;;;;;;0.80;0.50;;;10.20;99.90;;;;;;4991803;28;20177;-70
2022/05/06 02:55:27;;;;;;;0.80;0.50;;;10.20;99.90;;;;;;4991713;28;20639;-70
2022/05/06 02:57:53;;;;;;;0.80;0.50;;;10.10;99.90;;;;;;4992418;28;20558;-68
2022/05/06 03:00:19;;;;;;;0.80;0.50;;;10.10;99.90;;;;;;4993438;28;20173;-69
2022/05/06 03:02:45;;;;;;;0.80;0.50;;;10.10;99.90;;;;;;5011628;28;20422;-69
2022/05/06 03:05:11;;;;;;;1.73;1.53;;;10.10;99.90;;;;;;5006111;28;20455;-68
2022/05/06 03:07:36;;;;;;;0.80;0.50;;;10.10;99.90;;;;;;4992052;28;20232;-68
2022/05/06 03:10:03;;;;;;;0.80;0.50;;;10.00;99.90;;;;;;4992816;28;20180;-68
2022/05/06 03:12:30;;;;;;;0.80;0.50;;;10.00;99.90;;;;;;4992786;28;20184;-69
2022/05/06 03:14:58;;;;;;;0.80;0.50;;;10.00;99.90;;;;;;4992747;28;20431;-68
2022/05/06 03:17:23;;;;;;;0.80;0.50;;;10.00;99.90;;;;;;4990976;28;20463;-68
2022/05/06 03:19:49;;;;;;;0.80;0.50;;;9.90;99.90;;;;;;4991283;28;20420;-69
2022/05/06 03:22:16;;;;;;;0.80;0.50;;;9.90;99.90;;;;;;4992812;28;20251;-69
2022/05/06 03:24:43;;;;;;;0.80;0.50;;;9.90;99.90;;;;;;4992550;28;20177;-68
2022/05/06 03:27:59;;;;;;;0.80;0.50;;;9.90;99.90;;;;;;4992071;28;20423;-68
2022/05/06 03:29:54;;;;;;;0.80;0.50;;;9.80;99.90;;;;;;4992370;28;20844;-68
2022/05/06 03:32:19;;;;;;;0.80;0.63;;;9.80;99.90;;;;;;4992379;28;20460;-68
2022/05/06 03:34:45;;;;;;;0.80;0.50;;;9.80;99.90;;;;;;4992314;28;20263;-69
2022/05/06 03:37:10;;;;;;;0.80;0.50;;;9.80;99.90;;;;;;4991962;28;20200;-68
2022/05/06 03:39:36;;;;;;;0.80;0.50;;;9.70;99.90;;;;;;4991287;28;20184;-69
2022/05/06 03:42:02;;;;;;;0.80;0.50;;;9.70;99.90;;;;;;4993112;28;20553;-68
2022/05/06 03:44:27;;;;;;;0.80;0.50;;;9.70;99.90;;;;;;4996560;28;20176;-68
2022/05/06 03:46:53;;;;;;;0.80;0.50;;;9.70;99.90;;;;;;4995960;28;20272;-68
2022/05/06 03:49:18;;;;;;;0.80;0.50;;;9.70;99.90;;;;;;4996383;28;20196;-68
2022/05/06 03:51:45;;;;;;;0.80;0.50;;;9.60;99.90;;;;;;4996409;28;20204;-69
2022/05/06 03:54:11;;;;;;;0.80;0.50;;;9.60;99.90;;;;;;4996094;28;20193;-68
2022/05/06 03:56:36;;;;;;;0.80;0.50;;;9.60;99.90;;;;;;4994891;28;20404;-68
2022/05/06 03:59:02;;;;;;;0.80;0.50;;;9.60;99.90;;;;;;4995794;28;20204;-69
2022/05/06 04:01:27;;;;;;;0.80;0.50;;;9.60;99.90;;;;;;4995244;28;20181;-68
2022/05/06 04:03:54;;;;;;;0.80;0.50;;;9.60;99.90;;;;;;4996171;28;20169;-68
2022/05/06 04:06:20;;;;;;;0.80;0.50;;;9.50;99.90;;;;;;4995938;28;20200;-69
2022/05/06 04:08:45;;;;;;;0.80;0.50;;;9.50;99.90;;;;;;4994516;28;20856;-70
2022/05/06 04:11:12;;;;;;;0.80;0.50;;;9.50;99.90;;;;;;4996036;28;20184;-69
2022/05/06 04:13:38;;;;;;;0.80;0.50;;;9.50;99.90;;;;;;4996047;28;20530;-69
2022/05/06 04:16:05;;;;;;;0.80;0.50;;;9.50;99.90;;;;;;4995958;28;20413;-69
2022/05/06 04:18:31;;;;;;;0.80;0.50;;;9.50;99.90;;;;;;5002852;28;20459;-68
2022/05/06 04:23:41;;;;;;;1.00;0.60;;;9.50;99.90;;;;;;4996098;28;20415;-68
2022/05/06 04:26:14;;;;;;;0.77;0.50;;;9.60;99.90;;;;;;4995778;28;20404;-69
2022/05/06 04:28:41;;;;;;;0.80;0.50;;;9.60;99.90;;;;;;4994233;28;20189;-67
2022/05/06 04:31:07;;;;;;;0.80;0.50;;;9.60;99.90;;;;;;4995719;28;20419;-68
2022/05/06 04:33:34;;;;;;;0.80;0.50;;;9.60;99.90;;;;;;4995694;28;20408;-69
2022/05/06 04:36:00;;;;;;;0.80;0.50;;;9.60;99.90;;;;;;4995660;28;20408;-69
2022/05/06 04:38:26;;;;;;;0.80;0.50;;;9.70;99.90;;;;;;4994917;28;20462;-69
2022/05/06 04:40:56;;;;;;;0.80;0.50;;;9.70;99.90;;;;;;4995763;28;20911;-68
2022/05/06 04:43:22;;;;;;;0.90;0.70;;;9.70;99.90;;;;;;4994230;28;20933;-68
2022/05/06 04:45:49;;;;;;;0.80;0.50;;;9.80;99.90;;;;;;4995616;28;20396;-68
2022/05/06 04:48:15;;;;;;;0.80;0.50;;;9.80;99.90;;;;;;4994753;28;20438;-68
2022/05/06 04:50:42;;;;;;;0.80;0.50;;;9.80;99.90;;;;;;4995464;28;20439;-70
2022/05/06 04:53:09;;;;;;;0.80;0.60;;;9.90;99.90;;;;;;4994825;28;20454;-69
2022/05/06 04:55:39;;;;;;;0.80;0.50;;;9.90;99.90;;;;;;4995360;28;20438;-69
2022/05/06 04:58:06;;;;;;;0.80;0.50;;;10.00;99.90;;;;;;4994530;28;20514;-70
2022/05/06 05:00:32;;;;;;;0.80;0.50;;;10.10;99.90;;;;;;4995843;28;20925;-68
2022/05/06 05:02:59;;;;;;;0.80;0.50;;;10.10;99.90;;;;;;5013455;28;20416;-70
2022/05/06 05:05:24;;;;;;;0.80;0.60;;;10.10;99.90;;;;;;5012757;28;20419;-70
2022/05/06 05:07:51;;;;;;;0.80;0.50;;;10.20;99.90;;;;;;5012909;28;20436;-69
2022/05/06 05:10:17;;;;;;;0.80;0.80;;;10.20;99.90;;;;;;5012669;28;20177;-69
2022/05/06 05:12:42;;;;;;;0.80;0.50;;;10.30;99.90;;;;;;5012907;28;20500;-70
2022/05/06 05:15:10;;;;;;;0.73;0.50;;;10.40;99.90;;;;;;5013040;28;20427;-69
2022/05/06 05:17:35;;;;;;;0.80;0.50;;;10.50;99.90;;;;;;4997666;28;20217;-68
2022/05/06 05:20:01;;;;;;;0.93;0.57;;;10.50;99.90;;;;;;4994810;28;20898;-68
2022/05/06 05:22:27;;;;;;;0.80;0.50;;;10.60;99.90;;;;;;4994823;28;20215;-68
2022/05/06 05:24:52;;;;;;;1.00;0.60;;;10.70;99.90;;;;;;5011155;28;20404;-69
2022/05/06 05:27:18;;;;;;;0.80;0.60;;;10.80;99.90;;;;;;5011627;28;20270;-69
2022/05/06 05:29:44;;;;;;;0.97;0.87;;;11.00;99.90;;;;;;5011312;28;20214;-70
2022/05/06 05:32:10;;;;;;;2.70;1.27;;;11.10;99.90;;;;;;5010684;28;20244;-71
2022/05/06 05:34:36;;;;;;;0.97;0.80;;;11.20;99.90;;;;;;5010122;28;20187;-71
2022/05/06 05:37:01;;;;;;;4.43;3.47;;;11.40;99.90;;;;;;5010746;28;20527;-70
2022/05/06 05:39:27;;;;;;;6.10;2.30;;;11.50;99.90;;;;;;5009843;28;20193;-70
2022/05/06 05:41:53;;;;;;;4.53;2.10;;;11.70;99.90;;;;;;5008402;28;20219;-70
2022/05/06 05:49:48;;;;;;;4.10;1.93;;;12.50;99.90;;;;;;4994351;28;20431;-69
2022/05/06 05:52:13;;;;;;;1.10;1.00;;;12.80;99.90;;;;;;4994256;28;20462;-68
2022/05/06 05:54:39;;;;;;;2.23;1.77;;;13.20;99.90;;;;;;4994085;28;20424;-68
2022/05/06 05:57:06;;;;;;;3.47;1.40;;;13.60;99.90;;;;;;4993600;28;20197;-69
2022/05/06 05:59:33;;;;;;;1.33;0.80;;;13.90;99.90;;;;;;5000578;28;20208;-70
2022/05/06 06:02:00;;;;;;;0.80;0.60;;;14.40;99.90;;;;;;5004618;28;20853;-69
2022/05/06 06:04:26;;;;;;;1.70;1.43;;;14.90;99.90;;;;;;5002291;28;20780;-71
2022/05/06 06:06:51;;;;;;;1.23;1.13;;;15.40;99.90;;;;;;4996219;28;20432;-69
2022/05/06 06:09:17;;;;;;;1.67;0.90;;;16.00;99.90;;;;;;4993838;28;20193;-69
2022/05/06 06:11:43;;;;;;;1.37;0.57;;;16.60;99.90;;;;;;4993608;28;20199;-69
2022/05/06 06:14:09;;;;;;;1.40;1.10;;;17.20;99.90;;;;;;4993873;28;20408;-69
2022/05/06 06:16:35;;;;;;;1.73;1.03;;;17.80;99.90;;;;;;4993326;28;20899;-69
2022/05/06 06:19:00;;;;;;;3.50;1.03;;;18.50;99.90;;;;;;4993439;28;20288;-69
2022/05/06 06:21:26;;;;;;;1.60;0.93;;;19.10;99.90;;;;;;4993710;28;20556;-69
2022/05/06 06:23:53;;;;;;;2.77;2.30;;;19.80;99.90;;;;;;4993659;28;20645;-70
2022/05/06 06:26:18;;;;;;;1.77;1.57;;;20.40;99.90;;;;;;4993460;28;20427;-69
2022/05/06 06:28:44;;;;;;;2.23;1.40;;;20.80;99.90;;;;;;4993437;28;20427;-69
2022/05/06 06:31:10;;;;;;;1.37;1.00;;;21.30;99.90;;;;;;4992232;28;20173;-71
2022/05/06 06:33:38;;;;;;;0.93;0.83;;;22.00;99.90;;;;;;4993247;28;20667;-68
2022/05/06 06:36:10;;;;;;;2.80;1.33;;;22.60;99.90;;;;;;4991649;28;20188;-69
2022/05/06 06:38:35;;;;;;;1.60;1.27;;;23.20;99.90;;;;;;5007217;28;20468;-70
2022/05/06 06:41:01;;;;;;;1.77;1.50;;;23.80;99.90;;;;;;5009655;28;20517;-70
2022/05/06 06:43:27;;;;;;;1.93;1.53;;;24.40;99.90;;;;;;4999062;28;20175;-69
2022/05/06 06:45:53;;;;;;;1.67;1.57;;;25.10;99.90;;;;;;4993269;28;20486;-69
2022/05/06 06:48:19;;;;;;;2.07;1.50;;;25.80;99.90;;;;;;4992828;28;20610;-69
2022/05/06 06:50:44;;;;;;;1.00;0.80;;;26.60;99.90;;;;;;4993059;28;20440;-71
2022/05/06 06:53:10;;;;;;;2.93;1.87;;;27.40;99.90;;;;;;4993121;28;20259;-70
2022/05/06 06:55:36;;;;;;;3.13;2.40;;;28.10;99.90;;;;;;4993110;28;20243;-69
2022/05/06 06:58:02;;;;;;;4.20;2.03;;;28.80;95.30;;;;;;4992415;28;20220;-70
2022/05/06 07:00:28;;;;;;;6.37;3.33;;;29.60;92.30;;;;;;4992788;28;20168;-70
2022/05/06 07:02:55;;;;;;;1.77;1.27;;;30.40;89.00;;;;;;4991724;28;20935;-71
2022/05/06 07:05:22;;;;;;;2.87;2.00;;;31.20;82.50;;;;;;4992850;28;20252;-70
2022/05/06 07:11:52;;;;;;;2.13;1.47;;;33.00;74.20;;;;;;5004332;28;20473;-72
2022/05/06 07:13:23;;;;;;;1.80;1.37;;;33.90;68.70;;;;;;4998067;28;20411;-70
2022/05/06 07:15:48;;;;;;;1.40;1.20;;;34.70;64.30;;;;;;4992575;28;20399;-71
2022/05/06 07:18:14;;;;;;;2.33;1.50;;;35.30;60.40;;;;;;4991491;28;20593;-70
2022/05/06 07:20:42;;;;;;;3.23;2.93;;;35.90;58.30;;;;;;4992595;28;20248;-70
2022/05/06 07:23:08;;;;;;;1.20;1.00;;;36.40;56.60;;;;;;4991235;28;20678;-71
2022/05/06 07:25:33;;;;;;;1.00;0.90;;;36.70;54.20;;;;;;4992869;28;20439;-70
2022/05/06 07:27:59;;;;;;;2.00;1.80;;;36.90;52.50;;;;;;4992244;28;20200;-71
2022/05/06 07:30:25;;;;;;;1.70;1.60;;;37.10;50.80;;;;;;4999682;28;20802;-71
2022/05/06 07:32:50;;;;;;;1.30;1.20;;;37.40;49.10;;;;;;4992358;28;20226;-71
2022/05/06 07:35:16;;;;;;;3.73;1.70;;;37.70;47.30;;;;;;4992383;28;20510;-70
2022/05/06 07:37:42;;;;;;;1.67;1.20;;;38.30;45.80;;;;;;4992120;28;20683;-71
2022/05/06 07:40:11;;;;;;;1.53;1.40;;;38.90;44.50;;;;;;4992776;28;20523;-70
2022/05/06 07:42:41;;;;;;;1.70;1.50;;;39.50;43.50;;;;;;4992652;28;20191;-71
2022/05/06 07:45:07;;;;;;;3.40;2.40;;;40.20;42.60;;;;;;4992231;28;20507;-71
2022/05/06 07:47:33;;;;;;;1.50;1.40;;;40.90;42.50;;;;;;4991557;28;20464;-71
2022/05/06 07:49:58;;;;;;;2.23;1.47;;;41.60;41.00;;;;;;4992501;28;20443;-70
2022/05/06 07:52:24;;;;;;;1.20;1.10;;;42.30;40.20;;;;;;4992565;28;20215;-71
2022/05/06 07:54:49;;;;;;;2.80;2.03;;;43.00;39.50;;;;;;4991550;28;20212;-71
2022/05/06 07:57:15;;;;;;;2.17;1.83;;;43.40;38.60;;;;;;4991808;28;20197;-71
2022/05/06 07:59:40;;;;;;;3.20;2.63;;;43.70;37.80;;;;;;4992460;28;20172;-70
2022/05/06 08:04:50;;;;;;;2.63;2.43;;;44.10;36.30;;;;;;5005671;28;20195;-69
2022/05/06 08:07:17;;;;;;;3.00;2.80;;;44.30;35.80;;;;;;5007999;28;20399;-70
2022/05/06 08:09:43;;;;;;;2.53;2.20;;;44.80;35.40;;;;;;5010368;28;20165;-70
2022/05/06 08:12:10;;;;;;;3.53;3.27;;;45.30;34.80;;;;;;5010796;28;20474;-70
2022/05/06 08:14:36;;;;;;;2.47;2.27;;;45.80;34.20;;;;;;4997312;28;20243;-69
2022/05/06 08:17:02;;;;;;;2.20;1.97;;;46.50;33.60;;;;;;4991376;28;20399;-70
2022/05/06 08:19:27;;;;;;;2.30;2.20;;;47.10;33.00;;;;;;4990624;28;20453;-70
2022/05/06 08:21:53;;;;;;;1.50;1.40;;;47.70;32.40;;;;;;4988590;28;20398;-72
2022/05/06 08:24:19;;;;;;;2.37;2.17;;;48.30;31.80;;;;;;4991671;28;20249;-71
2022/05/06 08:26:46;;;;;;;2.10;2.00;;;48.90;31.30;;;;;;4991818;28;20450;-72
2022/05/06 08:29:11;;;;;;;1.73;1.63;;;49.40;30.60;;;;;;4993998;28;20452;-70
2022/05/06 08:31:40;;;;;;;1.57;1.47;;;50.00;30.00;;;;;;4995379;28;20477;-71
2022/05/06 08:34:07;;;;;;;2.17;1.97;;;50.50;29.70;;;;;;4995260;28;20172;-70
2022/05/06 08:36:34;;;;;;;1.90;1.80;;;50.90;29.30;;;;;;4995321;28;20389;-70
2022/05/06 08:39:00;;;;;;;1.70;1.60;;;51.30;28.80;;;;;;4995558;28;20985;-69
2022/05/06 08:41:27;;;;;;;2.20;2.00;;;51.50;28.50;;;;;;4995427;28;20709;-69
2022/05/06 08:43:53;;;;;;;1.43;1.33;;;51.80;28.00;;;;;;4995136;28;20448;-69
2022/05/06 08:51:53;;;;;;;2.20;1.90;;;52.20;27.00;;;;;;5008008;28;20415;-70
2022/05/06 08:54:19;;;;;;;2.47;2.37;;;52.40;26.70;;;;;;4994765;28;21170;-69
2022/05/06 08:56:45;;;;;;;2.10;2.00;;;52.60;26.60;;;;;;4994939;28;20400;-70
2022/05/06 08:59:11;;;;;;;1.80;1.70;;;52.80;25.90;;;;;;4994889;28;20424;-69
2022/05/06 09:01:37;;;;;;;2.03;1.93;;;52.90;25.70;;;;;;4994872;28;21086;-70
2022/05/06 09:04:03;;;;;;;1.83;1.73;;;53.10;25.70;;;;;;4994721;28;20247;-70
2022/05/06 09:06:30;;;;;;;1.50;1.40;;;53.20;25.50;;;;;;4993565;28;20673;-69
2022/05/06 09:08:57;;;;;;;1.60;1.50;;;53.50;25.40;;;;;;4994288;28;20204;-70
2022/05/06 09:14:17;;;;;;;1.90;1.80;;;54.00;25.30;;;;;;4994184;28;20398;-70
2022/05/06 09:16:49;;;;;;;1.50;1.40;;;54.10;24.90;;;;;;4994035;28;20916;-70
2022/05/06 09:19:27;;;;;;;2.00;1.90;;;54.20;24.80;;;;;;4994575;28;20441;-70
2022/05/06 09:22:09;;;;;;;1.93;1.83;;;54.40;24.80;;;;;;4993188;28;20423;-70
2022/05/06 09:24:37;;;;;;;1.77;1.67;;;54.80;24.70;;;;;;4994633;28;20976;-70
2022/05/06 09:27:16;;;;;;;1.50;1.40;;;55.10;24.40;;;;;;4994160;28;20411;-71
2022/05/06 09:29:50;;;;;;;1.53;1.43;;;55.40;24.40;;;;;;4994397;28;20400;-71
2022/05/06 09:32:22;;;;;;;1.80;1.70;;;55.70;24.10;;;;;;4994226;28;20764;-70
2022/05/06 09:35:05;;;;;;;1.73;1.63;;;55.90;23.90;;;;;;4994359;28;20503;-70
2022/05/06 09:37:35;;;;;;;1.77;1.67;;;56.20;23.80;;;;;;4994137;28;20983;-71
2022/05/06 09:40:08;;;;;;;1.80;1.70;;;56.50;23.70;;;;;;4993264;28;20451;-68
2022/05/06 09:42:42;;;;;;;1.67;1.57;;;56.60;23.60;;;;;;4994678;28;20420;-70
2022/05/06 09:45:10;;;;;;;1.67;1.57;;;56.80;23.60;;;;;;4994275;28;20771;-69
2022/05/06 09:47:36;;;;;;;2.10;1.90;;;57.00;23.60;;;;;;4993676;28;20463;-69
2022/05/06 09:50:05;;;;;;;2.30;2.20;;;57.20;23.50;;;;;;4993858;28;20419;-69
2022/05/06 09:52:30;;;;;;;2.20;2.10;;;57.30;23.30;;;;;;4993708;28;20858;-69
2022/05/06 09:54:57;;;;;;;2.10;2.00;;;57.60;23.20;;;;;;4993826;28;20527;-69
2022/05/06 09:57:23;;;;;;;2.00;1.90;;;57.70;23.00;;;;;;4993559;28;20165;-70
2022/05/06 09:59:50;;;;;;;2.47;2.30;;;57.90;22.90;;;;;;4993838;28;20483;-69
2022/05/06 10:02:17;;;;;;;2.37;2.27;;;58.10;22.80;;;;;;4993648;28;20169;-70
2022/05/06 10:04:43;;;;;;;2.20;2.10;;;58.30;22.70;;;;;;4993873;28;20408;-69
2022/05/06 10:07:17;;;;;;;2.10;2.00;;;58.40;22.50;;;;;;4991987;28;20459;-71
2022/05/06 10:10:21;;;;;;;2.23;2.13;;;58.50;22.40;;;;;;4993485;28;20424;-70
2022/05/06 10:12:54;;;;;;;3.03;2.83;;;58.70;22.30;;;;;;4990281;28;20424;-70
2022/05/06 10:15:23;;;;;;;2.80;2.70;;;58.90;22.10;;;;;;4993623;28;20411;-70
2022/05/06 10:17:50;;;;;;;2.90;2.70;;;59.10;21.90;;;;;;4993016;28;20960;-70
2022/05/06 10:20:41;;;;;;;2.73;2.63;;;59.30;21.90;;;;;;4993451;28;20430;-70
2022/05/06 10:23:09;;;;;;;3.30;3.10;;;59.40;21.70;;;;;;4990504;28;20507;-70
2022/05/06 10:25:41;;;;;;;2.77;2.67;;;59.70;21.60;;;;;;4992241;28;20489;-72
2022/05/06 10:34:16;;;;;;;2.40;2.30;;;60.20;21.30;;;;;;4993010;28;20952;-70
2022/05/06 10:36:53;;;;;;;3.40;3.30;;;60.50;21.10;;;;;;4991974;28;20982;-70
2022/05/06 10:39:25;;;;;;;2.50;2.40;;;60.60;21.00;;;;;;4993319;28;20423;-70
2022/05/06 10:42:04;;;;;;;2.70;2.60;;;60.70;21.10;;;;;;4992659;28;20407;-70
2022/05/06 10:44:43;;;;;;;2.60;2.50;;;60.80;21.00;;;;;;4992884;28;20450;-70
2022/05/06 10:47:12;;;;;;;2.60;2.50;;;60.90;21.00;;;;;;4992659;28;20488;-70
2022/05/06 10:49:41;;;;;;;2.60;2.50;;;60.90;21.00;;;;;;4992772;28;20419;-72
2022/05/06 10:52:15;;;;;;;3.27;3.17;;;61.00;20.90;;;;;;4992560;28;20430;-71
2022/05/06 10:54:42;;;;;;;3.20;3.10;;;61.30;21.00;;;;;;4992750;28;20419;-70
2022/05/06 10:57:08;;;;;;;2.73;2.63;;;61.50;21.00;;;;;;4992715;28;20442;-70
2022/05/06 10:59:53;;;;;;;2.90;2.80;;;61.80;20.80;;;;;;4992720;28;20522;-70
2022/05/06 11:02:23;;;;;;;3.00;2.90;;;62.00;20.80;;;;;;4992576;28;20419;-70
2022/05/06 11:04:54;;;;;;;2.70;2.60;;;62.20;20.70;;;;;;4992650;28;20919;-70
2022/05/06 11:07:20;;;;;;;3.07;2.97;;;62.50;20.70;;;;;;4992251;28;20447;-71
2022/05/06 11:09:46;;;;;;;3.67;3.57;;;62.70;20.60;;;;;;4992238;28;20442;-71
2022/05/06 11:12:35;;;;;;;3.97;3.87;;;63.20;20.60;;;;;;4992175;28;20414;-72
2022/05/06 11:15:02;;;;;;;3.93;3.83;;;63.70;20.60;;;;;;4992501;28;20464;-70
2022/05/06 11:17:28;;;;;;;3.80;3.70;;;64.10;20.40;;;;;;4992129;28;20408;-70
2022/05/06 11:19:54;;;;;;;4.40;4.30;;;64.40;20.20;;;;;;4992510;28;20407;-71
2022/05/06 11:22:23;;;;;;;5.17;4.97;;;64.70;20.00;;;;;;4992338;28;20176;-70
2022/05/06 11:24:54;;;;;;;4.10;4.00;;;65.00;20.00;;;;;;4992321;28;20411;-70
2022/05/06 11:27:20;;;;;;;4.00;3.90;;;64.90;19.80;;;;;;4991970;28;20465;-69
2022/05/06 11:29:51;;;;;;;3.00;2.90;;;63.50;19.50;;;;;;4991030;28;20527;-69
2022/05/06 11:32:17;;;;;;;3.10;3.00;;;61.70;19.50;;;;;;4992261;28;20415;-69
2022/05/06 11:34:55;;;;;;;2.00;1.90;;;59.10;19.40;;;;;;4992076;28;20793;-68
2022/05/06 11:37:28;;;;;;;1.90;1.80;;;56.40;19.60;;;;;;4992026;28;20924;-69
2022/05/06 11:42:38;;;;;;;3.00;1.50;;;51.50;20.20;;;;;;4992091;28;20505;-69
2022/05/06 11:47:49;;;;;;;1.30;1.20;;;47.10;21.00;;;;;;4991873;28;20869;-68
2022/05/06 11:50:14;;;;;;;1.53;1.43;;;45.70;21.50;;;;;;4992170;28;20404;-69
2022/05/06 11:52:42;;;;;;;1.97;1.50;;;46.20;22.10;;;;;;4992050;28;20207;-71
2022/05/06 11:55:08;;;;;;;1.87;1.70;;;47.80;22.10;;;;;;4991883;28;20204;-71
2022/05/06 11:57:36;;;;;;;1.50;1.40;;;49.40;21.90;;;;;;4991803;28;20399;-71
2022/05/06 12:00:06;;;;;;;1.67;1.57;;;50.80;21.70;;;;;;4990881;28;20401;-70
2022/05/06 12:02:33;;;;;;;1.70;1.60;;;51.90;21.30;;;;;;4992041;28;20386;-71
2022/05/06 12:04:59;;;;;;;2.40;2.20;;;51.00;21.00;;;;;;4995493;28;20892;-69
2022/05/06 12:07:47;;;;;;;1.20;1.10;;;49.40;20.90;;;;;;4995585;28;20466;-70
2022/05/06 12:10:37;;;;;;;1.57;1.47;;;47.70;21.20;;;;;;4995899;28;20165;-70
2022/05/06 12:13:07;;;;;;;1.30;1.20;;;47.80;21.90;;;;;;4990948;28;20417;-70
2022/05/06 12:15:41;;;;;;;1.60;1.50;;;49.10;21.90;;;;;;4991067;28;20428;-70
2022/05/06 12:18:17;;;;;;;1.40;1.30;;;50.50;21.70;;;;;;4995449;28;20428;-70
2022/05/06 12:20:43;;;;;;;1.93;1.73;;;51.90;21.50;;;;;;4995416;28;20442;-70
2022/05/06 12:23:11;;;;;;;1.80;1.70;;;53.00;21.10;;;;;;4995600;28;20383;-70
2022/05/06 12:25:41;;;;;;;1.50;1.40;;;53.90;20.80;;;;;;4993969;28;20185;-69
2022/05/06 12:28:10;;;;;;;1.80;1.70;;;54.70;20.70;;;;;;4995672;28;20865;-69
2022/05/06 12:30:38;;;;;;;1.80;1.70;;;55.20;20.60;;;;;;4995853;28;20796;-69
2022/05/06 12:33:08;;;;;;;1.67;1.43;;;55.50;20.50;;;;;;4995750;28;20404;-69
2022/05/06 12:35:57;;;;;;;1.93;1.43;;;55.30;20.30;;;;;;4995277;28;20416;-69
2022/05/06 12:38:24;;;;;;;1.50;1.40;;;54.50;20.50;;;;;;4992342;28;20436;-69
2022/05/06 12:40:50;;;;;;;1.87;1.77;;;53.90;20.50;;;;;;4995309;28;20432;-69
2022/05/06 12:43:23;;;;;;;1.90;1.80;;;53.20;20.40;;;;;;4995350;28;20395;-69
2022/05/06 12:45:59;;;;;;;1.70;1.60;;;53.20;20.60;;;;;;4995315;28;20857;-70
2022/05/06 12:51:09;;;;;;;1.77;1.67;;;53.70;21.00;;;;;;4995773;28;20571;-69
2022/05/06 12:53:35;;;;;;;3.00;2.80;;;54.00;21.10;;;;;;4995256;28;20470;-70
2022/05/06 12:56:04;;;;;;;2.43;2.33;;;54.20;21.00;;;;;;4995084;28;20254;-70
2022/05/06 12:58:30;;;;;;;1.60;1.50;;;54.40;21.10;;;;;;4994885;28;20431;-71
2022/05/06 13:00:57;;;;;;;1.73;1.63;;;54.60;21.10;;;;;;4995247;28;20408;-70
2022/05/06 13:03:23;;;;;;;1.70;1.60;;;54.70;21.10;;;;;;4995282;28;20459;-70
2022/05/06 13:05:50;;;;;;;2.07;1.90;;;54.80;21.10;;;;;;4994951;28;20913;-70
2022/05/06 13:08:16;;;;;;;1.60;1.50;;;54.90;21.10;;;;;;4994514;28;20208;-69
2022/05/06 13:10:41;;;;;;;2.20;2.10;;;54.80;21.00;;;;;;4993881;28;20404;-70
2022/05/06 13:13:07;;;;;;;1.77;1.67;;;54.70;21.10;;;;;;4995004;28;20275;-69
2022/05/06 13:15:32;;;;;;;2.17;2.07;;;54.60;21.10;;;;;;4994649;28;20201;-69
2022/05/06 13:17:58;;;;;;;1.70;1.60;;;54.50;21.10;;;;;;4993371;28;20193;-71
2022/05/06 13:20:24;;;;;;;1.70;1.60;;;54.20;21.10;;;;;;4994940;28;20235;-69
2022/05/06 13:22:49;;;;;;;1.73;1.63;;;53.90;21.00;;;;;;4994705;28;20176;-69
2022/05/06 13:25:15;;;;;;;2.00;1.90;;;53.80;21.00;;;;;;4994586;28;20593;-70
2022/05/06 13:27:40;;;;;;;1.70;1.60;;;53.70;21.00;;;;;;4994337;28;20208;-70
2022/05/06 13:30:07;;;;;;;1.50;1.40;;;53.60;21.00;;;;;;4994710;28;20165;-69
2022/05/06 13:32:34;;;;;;;1.83;1.73;;;53.40;21.00;;;;;;4994592;28;20654;-70
2022/05/06 13:35:00;;;;;;;1.50;1.40;;;53.20;20.90;;;;;;4994541;28;20391;-69